Terminal Aerodrome Forecast
Issued by NWS

Home | Current Version | Previous Version | Graphics & Text | Print | Product List | Glossary On
Versions: 1 2 3 4 5 6 7 8 9 10 11 12 13 14 15 16 17 18 19 20 21 22 23 24 25 26 27 28 29 30 31 32 33 34 35 36 37 38 39 40 41 42 43 44 45 46 47 48 49 50
000
FTUS43 KLOT 291120
TAFGYY
TAF
KGYY 291120Z 2912/3012 VRB03KT 6SM BR VCSH SCT020 BKN040
      TEMPO 2912/2915 3SM -SHRA BKN020
     FM291500 05006KT P6SM VCSH SCT012 BKN018
     FM291800 04006KT P6SM VCSH SCT020 BKN035
     FM300000 15004KT P6SM BKN030 BKN250
     FM300900 21005KT 5SM -SHRA BR BKN010 OVC018=

USA.gov is the U.S. government's official web portal to all federal, state and local government web resources and services.